Time;durP1;ratioP1;P1;durP2;ratioP2;P2;SDS_P1;SDS_P2;PMS_P1;PMS_P2;Temp;Humidity;BMP_temperature;BMP_pressure;BME280_temperature;BME280_humidity;BME280_pressure;Samples;Min_cycle;Max_cycle;Signal;HPM_P1;HPM_P2
2021/04/27 06:12:36;;;;;;;2.73;2.10;;;16.40;81.90;;;;;;4722045;23;20637;-78
2021/04/27 06:15:02;;;;;;;4.43;2.17;;;16.30;81.30;;;;;;4972110;28;20218;-78
2021/04/27 06:17:29;;;;;;;4.90;2.10;;;16.00;82.50;;;;;;4974569;28;20207;-78
2021/04/27 06:19:55;;;;;;;3.67;2.00;;;16.30;81.90;;;;;;4968266;28;20223;-75
2021/04/27 06:22:21;;;;;;;2.73;1.80;;;16.30;82.30;;;;;;4973709;28;20203;-74
2021/04/27 06:24:48;;;;;;;3.37;2.10;;;16.60;80.20;;;;;;4974181;28;20219;-75
2021/04/27 06:27:14;;;;;;;4.07;2.37;;;16.30;80.40;;;;;;4974019;28;20203;-77
2021/04/27 06:29:41;;;;;;;4.20;2.13;;;16.60;80.00;;;;;;4973650;28;20235;-75
2021/04/27 06:32:08;;;;;;;3.03;2.20;;;16.80;80.40;;;;;;4974229;28;20238;-74
2021/04/27 06:34:34;;;;;;;4.50;2.10;;;17.30;78.80;;;;;;4974205;28;20227;-75
2021/04/27 06:37:00;;;;;;;4.53;2.27;;;17.30;78.50;;;;;;4974450;28;20219;-75
2021/04/27 06:39:26;;;;;;;5.57;2.17;;;17.30;78.90;;;;;;4973914;28;20594;-74
2021/04/27 06:41:53;;;;;;;4.78;2.25;;;18.20;78.10;;;;;;4974133;28;20237;-74
2021/04/27 06:44:19;;;;;;;3.40;2.10;;;19.00;75.90;;;;;;4974638;28;20215;-76
2021/04/27 06:46:46;;;;;;;3.08;1.80;;;19.40;75.10;;;;;;4978102;28;20281;-72
2021/04/27 06:49:13;;;;;;;5.43;2.20;;;19.40;74.20;;;;;;4977332;28;20235;-75
2021/04/27 06:51:39;;;;;;;3.92;2.13;;;19.60;74.40;;;;;;4978076;28;20215;-76
2021/04/27 06:54:05;;;;;;;4.57;2.08;;;19.70;73.60;;;;;;4977979;28;20250;-76
2021/04/27 06:56:33;;;;;;;3.42;2.53;;;19.70;73.40;;;;;;4977547;28;20253;-77
2021/04/27 06:58:59;;;;;;;4.05;2.70;;;20.10;72.80;;;;;;4977394;28;20563;-77
2021/04/27 07:01:26;;;;;;;3.40;2.00;;;20.10;72.10;;;;;;4977634;28;20211;-77
2021/04/27 07:03:53;;;;;;;3.33;2.42;;;20.30;72.80;;;;;;4977925;28;20211;-77
2021/04/27 07:06:19;;;;;;;4.90;2.58;;;19.80;71.30;;;;;;4977991;28;20215;-77
2021/04/27 07:08:45;;;;;;;4.75;2.70;;;19.10;72.20;;;;;;4977289;28;20825;-77
2021/04/27 07:11:11;;;;;;;6.35;2.65;;;18.70;73.90;;;;;;4977650;28;20266;-77
2021/04/27 07:13:38;;;;;;;3.83;2.75;;;19.00;73.10;;;;;;4977518;28;20242;-77
2021/04/27 07:16:05;;;;;;;6.43;3.03;;;18.40;73.20;;;;;;4977442;28;20554;-77
2021/04/27 07:18:31;;;;;;;3.63;2.63;;;18.10;74.30;;;;;;4977249;28;20219;-78
2021/04/27 07:20:59;;;;;;;4.40;2.58;;;18.40;74.60;;;;;;4977202;28;20355;-77
2021/04/27 07:23:25;;;;;;;5.82;2.65;;;18.00;75.10;;;;;;4977478;28;20211;-77
2021/04/27 07:25:51;;;;;;;3.50;2.63;;;18.40;74.80;;;;;;4977404;28;20629;-77
2021/04/27 07:28:18;;;;;;;6.50;3.03;;;19.30;73.70;;;;;;4977361;28;20211;-76
2021/04/27 07:30:44;;;;;;;4.88;2.50;;;19.90;73.70;;;;;;4976436;28;20227;-77
2021/04/27 07:33:12;;;;;;;3.72;2.60;;;20.00;71.90;;;;;;4977218;28;20230;-77
2021/04/27 07:35:38;;;;;;;4.38;2.22;;;20.50;71.30;;;;;;4977210;28;20211;-76
2021/04/27 07:38:06;;;;;;;4.75;2.70;;;19.90;71.80;;;;;;4977173;28;20204;-76
2021/04/27 07:40:33;;;;;;;4.65;2.75;;;19.50;72.30;;;;;;4976715;28;20227;-77
2021/04/27 07:43:00;;;;;;;4.22;2.90;;;18.80;73.50;;;;;;4976701;28;20536;-77
2021/04/27 07:45:30;;;;;;;5.65;3.22;;;18.60;74.10;;;;;;4976906;28;20217;-77
2021/04/27 07:47:57;;;;;;;5.60;2.80;;;19.20;73.70;;;;;;4977415;28;20218;-77
2021/04/27 07:50:23;;;;;;;4.50;2.75;;;19.90;72.90;;;;;;4976780;28;20251;-76
2021/04/27 07:52:50;;;;;;;5.00;2.70;;;20.20;71.30;;;;;;4976827;28;20235;-77
2021/04/27 07:55:17;;;;;;;6.60;3.20;;;20.40;70.80;;;;;;4976079;28;20211;-77
2021/04/27 07:57:44;;;;;;;5.18;2.80;;;20.70;71.30;;;;;;4976716;28;20589;-76
2021/04/27 08:00:11;;;;;;;5.30;3.00;;;21.50;70.40;;;;;;4976607;28;20634;-76
2021/04/27 08:02:37;;;;;;;5.57;3.10;;;21.80;68.70;;;;;;4976890;28;20223;-76
2021/04/27 08:05:05;;;;;;;3.90;3.03;;;21.60;68.00;;;;;;4976747;28;20219;-77
2021/04/27 08:07:31;;;;;;;3.58;2.67;;;21.50;67.70;;;;;;4976525;28;20247;-77
2021/04/27 08:09:57;;;;;;;7.32;2.92;;;21.30;68.50;;;;;;4976351;28;20215;-76
2021/04/27 08:12:24;;;;;;;4.35;2.67;;;20.40;69.90;;;;;;4976160;28;20230;-77
2021/04/27 08:14:51;;;;;;;3.92;2.70;;;20.80;69.60;;;;;;4976361;28;20207;-77
2021/04/27 08:17:17;;;;;;;5.10;2.53;;;20.70;70.60;;;;;;4976959;28;20210;-77
2021/04/27 08:19:43;;;;;;;4.22;3.10;;;20.20;70.00;;;;;;4976640;28;20231;-77
2021/04/27 08:22:09;;;;;;;5.05;2.50;;;19.80;69.90;;;;;;4976402;28;20277;-78
2021/04/27 08:24:36;;;;;;;5.15;2.35;;;20.60;69.10;;;;;;4976164;28;20681;-77
2021/04/27 08:27:03;;;;;;;3.83;2.72;;;20.70;67.90;;;;;;4976073;28;20211;-77
2021/04/27 08:29:30;;;;;;;4.55;2.67;;;21.10;68.30;;;;;;4976296;28;20577;-77
2021/04/27 08:31:57;;;;;;;5.45;2.70;;;21.20;68.80;;;;;;4976429;28;20210;-78
2021/04/27 08:34:23;;;;;;;4.80;2.63;;;22.10;69.10;;;;;;4976247;28;20208;-77
2021/04/27 08:36:50;;;;;;;5.82;2.92;;;21.20;67.50;;;;;;4976154;28;20211;-77
2021/04/27 08:39:16;;;;;;;5.03;2.95;;;21.00;67.70;;;;;;4975789;28;20323;-78
2021/04/27 08:41:44;;;;;;;3.67;2.88;;;20.50;68.00;;;;;;4975543;28;20207;-77
2021/04/27 08:44:11;;;;;;;3.58;2.50;;;21.50;65.80;;;;;;4976006;28;20215;-77
2021/04/27 08:46:38;;;;;;;4.63;2.50;;;22.10;64.50;;;;;;4976098;28;20223;-77
2021/04/27 08:49:05;;;;;;;5.28;2.72;;;22.20;66.00;;;;;;4975951;28;20231;-77
2021/04/27 08:51:31;;;;;;;3.88;2.78;;;21.50;66.60;;;;;;4975890;28;20559;-76
2021/04/27 08:53:57;;;;;;;5.43;2.95;;;22.00;65.80;;;;;;4975671;28;20234;-78
2021/04/27 08:56:24;;;;;;;5.93;3.20;;;21.80;66.00;;;;;;4975564;28;20211;-76
2021/04/27 08:58:52;;;;;;;5.07;2.90;;;21.60;66.40;;;;;;4975712;28;20285;-77
2021/04/27 09:01:19;;;;;;;8.85;3.22;;;20.90;67.50;;;;;;4975732;28;20203;-77
2021/04/27 09:03:47;;;;;;;5.05;2.90;;;20.00;68.10;;;;;;4975647;28;20214;-77
2021/04/27 09:06:16;;;;;;;4.40;2.53;;;20.60;68.80;;;;;;4975382;28;20293;-77
2021/04/27 09:08:42;;;;;;;3.95;3.10;;;20.60;67.60;;;;;;4974235;28;20211;-76
2021/04/27 09:11:25;;;;;;;4.57;2.55;;;20.50;67.30;;;;;;4975315;28;21215;-77
2021/04/27 09:14:11;;;;;;;3.85;2.60;;;20.10;66.80;;;;;;4975186;28;20239;-78
2021/04/27 09:16:38;;;;;;;4.13;2.70;;;19.00;68.30;;;;;;4975315;28;20253;-75
2021/04/27 09:19:06;;;;;;;6.00;2.72;;;18.50;68.30;;;;;;4975169;28;20266;-76
2021/04/27 09:21:33;;;;;;;4.60;2.80;;;18.00;70.30;;;;;;4975443;28;20215;-77
2021/04/27 09:24:12;;;;;;;4.10;2.77;;;17.90;71.30;;;;;;4976357;28;20210;-77
2021/04/27 09:26:40;;;;;;;3.57;2.63;;;18.10;71.10;;;;;;4975740;28;20226;-77
2021/04/27 09:29:07;;;;;;;4.85;2.50;;;18.50;68.80;;;;;;4975611;28;20227;-77
2021/04/27 09:31:35;;;;;;;5.13;3.15;;;18.90;68.80;;;;;;4976027;28;20716;-77
2021/04/27 09:34:22;;;;;;;4.80;3.15;;;19.10;68.80;;;;;;4975693;28;20269;-76
2021/04/27 09:36:50;;;;;;;4.63;2.73;;;19.40;68.20;;;;;;4975393;28;20211;-76
2021/04/27 09:39:20;;;;;;;6.17;3.23;;;19.30;67.70;;;;;;4974871;28;20290;-77
2021/04/27 09:41:57;;;;;;;6.38;3.10;;;19.30;67.10;;;;;;4974550;28;20298;-77
2021/04/27 09:44:30;;;;;;;4.73;2.53;;;19.20;67.30;;;;;;4974762;28;20609;-76
2021/04/27 09:47:14;;;;;;;6.60;3.10;;;18.00;69.50;;;;;;4974636;28;20230;-77
2021/04/27 09:49:50;;;;;;;4.47;2.83;;;17.70;72.00;;;;;;4974517;28;20250;-77
2021/04/27 09:52:16;;;;;;;5.53;2.80;;;17.60;72.00;;;;;;4974641;28;20203;-77
2021/04/27 09:54:59;;;;;;;9.20;3.13;;;17.60;71.00;;;;;;4974446;28;20573;-77
2021/04/27 09:57:27;;;;;;;4.07;2.50;;;17.50;71.30;;;;;;4974974;28;20218;-77
2021/04/27 09:59:53;;;;;;;4.37;3.07;;;17.00;72.80;;;;;;4974461;28;20227;-76
2021/04/27 10:02:21;;;;;;;4.60;2.80;;;16.60;72.30;;;;;;4974450;28;20203;-76
2021/04/27 10:04:49;;;;;;;5.33;2.77;;;16.50;74.20;;;;;;4974485;28;20748;-76
2021/04/27 10:07:18;;;;;;;4.77;3.10;;;16.50;73.40;;;;;;4974295;28;20210;-76
2021/04/27 10:09:46;;;;;;;7.63;3.07;;;16.50;73.70;;;;;;4974012;28;20586;-76
2021/04/27 10:12:14;;;;;;;6.00;3.00;;;16.30;74.00;;;;;;4974177;28;20207;-76
2021/04/27 10:14:40;;;;;;;4.20;2.63;;;15.90;72.70;;;;;;4974120;28;20242;-76
2021/04/27 10:17:07;;;;;;;7.10;2.30;;;16.10;72.70;;;;;;4974410;28;20211;-76
2021/04/27 10:19:34;;;;;;;5.93;2.80;;;16.00;70.40;;;;;;4974549;28;20594;-76
2021/04/27 10:22:01;;;;;;;5.77;2.90;;;16.10;71.40;;;;;;4973975;28;20238;-76
2021/04/27 10:24:27;;;;;;;5.33;2.80;;;16.20;73.50;;;;;;4973908;28;20216;-76
2021/04/27 10:26:54;;;;;;;6.20;3.07;;;16.30;73.30;;;;;;4973868;28;20211;-76
2021/04/27 10:29:22;;;;;;;3.47;2.40;;;16.00;73.10;;;;;;4974142;28;20231;-76
2021/04/27 10:32:16;;;;;;;4.27;2.50;;;16.00;72.50;;;;;;4974107;28;20253;-76
2021/04/27 10:35:05;;;;;;;4.30;3.00;;;16.10;72.00;;;;;;4974167;28;20211;-76
2021/04/27 10:38:03;;;;;;;6.00;3.20;;;16.20;72.30;;;;;;4974126;28;20217;-76
2021/04/27 10:40:48;;;;;;;6.80;2.90;;;16.00;71.70;;;;;;4974499;28;20330;-77
2021/04/27 10:43:33;;;;;;;3.90;2.60;;;16.00;71.90;;;;;;4974598;28;20214;-76
2021/04/27 10:46:01;;;;;;;5.13;3.27;;;16.20;71.80;;;;;;4963637;28;20254;-75
2021/04/27 10:48:30;;;;;;;5.03;3.00;;;16.50;71.50;;;;;;4974211;28;20226;-76
2021/04/27 10:50:57;;;;;;;3.57;2.23;;;16.50;70.80;;;;;;4974434;28;20218;-75
2021/04/27 10:53:31;;;;;;;3.87;2.20;;;16.60;70.10;;;;;;4974831;28;20238;-76
2021/04/27 10:55:58;;;;;;;3.57;2.33;;;16.30;64.80;;;;;;4974273;28;20218;-76
2021/04/27 10:58:44;;;;;;;4.10;2.67;;;16.20;65.20;;;;;;4973913;28;20218;-76
2021/04/27 11:01:21;;;;;;;4.87;2.30;;;16.50;64.10;;;;;;4974136;28;20203;-75
2021/04/27 11:03:51;;;;;;;3.37;2.10;;;16.70;63.90;;;;;;4974791;28;20223;-75
2021/04/27 11:06:18;;;;;;;3.53;1.97;;;16.80;61.90;;;;;;4974073;28;20230;-76
2021/04/27 11:08:49;;;;;;;2.93;1.97;;;16.90;61.50;;;;;;4974803;28;20207;-74
2021/04/27 11:11:20;;;;;;;3.60;2.47;;;17.00;61.60;;;;;;4975178;28;20208;-74
2021/04/27 11:13:47;;;;;;;4.80;2.47;;;16.70;62.80;;;;;;4973831;28;20602;-75
2021/04/27 11:16:27;;;;;;;3.93;2.13;;;16.30;64.20;;;;;;4973788;28;20203;-74
2021/04/27 11:19:10;;;;;;;5.50;2.30;;;16.10;64.20;;;;;;4973319;28;20282;-74
2021/04/27 11:21:36;;;;;;;5.23;2.50;;;16.10;64.40;;;;;;4973441;28;20230;-74
2021/04/27 11:24:07;;;;;;;5.30;2.60;;;15.80;64.50;;;;;;4973536;28;20211;-75
2021/04/27 11:26:44;;;;;;;5.53;2.60;;;15.90;64.70;;;;;;4973600;28;20210;-74
2021/04/27 11:29:25;;;;;;;8.13;2.87;;;16.00;64.20;;;;;;4973670;28;20585;-75
2021/04/27 11:32:14;;;;;;;4.57;2.13;;;16.20;65.70;;;;;;4976246;28;20262;-76
2021/04/27 11:34:52;;;;;;;4.03;2.07;;;16.40;63.10;;;;;;4977101;28;20666;-76
2021/04/27 11:37:20;;;;;;;3.70;2.07;;;16.50;63.60;;;;;;4977397;28;20211;-76
2021/04/27 11:39:48;;;;;;;4.17;2.30;;;16.50;63.10;;;;;;4977013;28;20227;-75
2021/04/27 11:42:22;;;;;;;3.17;2.17;;;16.60;63.90;;;;;;4976833;28;20547;-75
2021/04/27 11:44:55;;;;;;;3.87;2.50;;;16.50;63.20;;;;;;4977249;28;20210;-75
2021/04/27 11:47:22;;;;;;;4.20;2.57;;;16.50;63.00;;;;;;4977310;28;20218;-76
2021/04/27 11:49:55;;;;;;;6.13;2.90;;;16.60;63.10;;;;;;4976805;28;20231;-75
2021/04/27 11:52:51;;;;;;;3.67;2.33;;;16.70;62.10;;;;;;4976631;28;20577;-76
2021/04/27 11:55:43;;;;;;;3.70;2.20;;;16.90;61.20;;;;;;4976687;28;20216;-76
2021/04/27 11:58:12;;;;;;;3.07;2.17;;;16.90;61.80;;;;;;4971608;28;20302;-75
2021/04/27 12:00:52;;;;;;;4.60;2.10;;;16.70;60.80;;;;;;4977332;28;20234;-76
2021/04/27 12:03:29;;;;;;;3.03;2.00;;;16.80;63.30;;;;;;4977831;28;20543;-76
2021/04/27 12:05:59;;;;;;;4.97;2.17;;;16.70;60.60;;;;;;4976718;28;20214;-76
2021/04/27 12:08:28;;;;;;;3.03;2.03;;;16.30;60.50;;;;;;4977159;28;20215;-77
2021/04/27 12:11:10;;;;;;;4.20;1.90;;;16.40;61.10;;;;;;4976553;28;20693;-76
2021/04/27 12:13:37;;;;;;;4.27;2.30;;;16.30;61.20;;;;;;4962281;28;20232;-72
2021/04/27 12:16:09;;;;;;;3.37;2.23;;;16.30;63.00;;;;;;4956103;28;20212;-72
2021/04/27 12:18:57;;;;;;;3.77;2.30;;;16.30;62.90;;;;;;4957916;28;20208;-72
2021/04/27 12:21:39;;;;;;;2.90;1.93;;;16.20;61.80;;;;;;4957745;28;20590;-73
2021/04/27 12:24:15;;;;;;;4.23;2.10;;;16.30;62.80;;;;;;4956883;29;20207;-73
2021/04/27 12:26:46;;;;;;;3.20;2.30;;;16.60;61.20;;;;;;4956778;28;20223;-72
2021/04/27 12:29:14;;;;;;;3.70;2.27;;;16.70;61.10;;;;;;4958724;28;20234;-74
2021/04/27 12:31:41;;;;;;;4.93;1.97;;;16.70;62.20;;;;;;4966987;28;20358;-72
2021/04/27 12:34:12;;;;;;;4.30;2.60;;;16.70;61.00;;;;;;4974930;28;20238;-74
2021/04/27 12:36:40;;;;;;;7.10;2.57;;;16.60;61.80;;;;;;4975149;28;20219;-73
2021/04/27 12:39:10;;;;;;;2.93;2.07;;;16.60;60.60;;;;;;4974594;28;20227;-73
2021/04/27 12:41:38;;;;;;;3.50;1.87;;;16.70;60.40;;;;;;4974555;28;20298;-72
2021/04/27 12:44:31;;;;;;;5.33;2.00;;;16.60;61.60;;;;;;4974184;28;20218;-73
2021/04/27 12:46:58;;;;;;;3.87;2.10;;;16.30;61.50;;;;;;4974720;28;20205;-73
2021/04/27 12:49:26;;;;;;;5.37;2.20;;;16.20;61.70;;;;;;4974207;28;20301;-75
2021/04/27 12:51:57;;;;;;;5.17;2.53;;;16.30;61.40;;;;;;4974520;28;20646;-74
2021/04/27 12:54:28;;;;;;;4.27;2.47;;;16.50;62.10;;;;;;4974631;28;20231;-72
2021/04/27 12:57:09;;;;;;;5.20;2.30;;;16.80;60.60;;;;;;4974659;28;20234;-73
2021/04/27 12:59:38;;;;;;;3.60;2.27;;;16.70;62.20;;;;;;4973873;28;20227;-72
2021/04/27 13:02:09;;;;;;;6.10;2.10;;;16.80;62.40;;;;;;4974060;28;20689;-75
2021/04/27 13:04:42;;;;;;;3.03;2.07;;;16.70;60.40;;;;;;4974475;28;20274;-74
2021/04/27 13:07:21;;;;;;;4.13;2.50;;;16.50;59.30;;;;;;4974376;28;20207;-76
2021/04/27 13:09:48;;;;;;;3.20;2.00;;;16.40;59.70;;;;;;4973451;28;20237;-73
2021/04/27 13:12:15;;;;;;;4.97;2.23;;;16.50;60.70;;;;;;4975326;28;20211;-72
2021/04/27 13:14:46;;;;;;;5.53;2.10;;;16.70;61.20;;;;;;4974681;28;20238;-73
2021/04/27 13:17:24;;;;;;;3.10;2.00;;;16.70;59.40;;;;;;4975090;28;20203;-74
2021/04/27 13:19:52;;;;;;;3.27;1.80;;;16.60;59.30;;;;;;4975232;28;20227;-75
2021/04/27 13:22:20;;;;;;;4.00;2.13;;;16.50;59.50;;;;;;4975150;28;20570;-73
2021/04/27 13:24:49;;;;;;;3.20;2.23;;;16.60;60.20;;;;;;4974632;28;20298;-73
2021/04/27 13:27:24;;;;;;;4.30;2.30;;;16.60;60.30;;;;;;4975070;28;20211;-74
2021/04/27 13:30:03;;;;;;;4.63;2.50;;;16.50;60.10;;;;;;4974584;28;20314;-73
2021/04/27 13:32:30;;;;;;;4.40;2.53;;;16.30;59.70;;;;;;4975020;28;20207;-73
2021/04/27 13:35:15;;;;;;;3.37;2.20;;;16.40;60.60;;;;;;4975335;28;20250;-74
2021/04/27 13:37:42;;;;;;;5.57;2.40;;;16.60;60.80;;;;;;4975330;28;20215;-74
2021/04/27 13:40:10;;;;;;;6.43;2.60;;;17.00;62.90;;;;;;4971064;28;20230;-73
2021/04/27 13:42:36;;;;;;;3.93;2.40;;;17.20;60.80;;;;;;4974459;28;20614;-72
2021/04/27 13:45:05;;;;;;;3.00;2.17;;;17.40;60.60;;;;;;4974332;28;20214;-72
2021/04/27 13:47:33;;;;;;;4.00;2.00;;;17.50;57.60;;;;;;4974264;28;20246;-71
2021/04/27 13:49:59;;;;;;;4.67;2.57;;;17.50;57.30;;;;;;4974776;28;20269;-75
2021/04/27 13:52:26;;;;;;;3.50;2.47;;;17.30;59.30;;;;;;4974910;28;20215;-76
2021/04/27 13:54:53;;;;;;;5.77;2.40;;;17.00;59.80;;;;;;4974324;28;20208;-72
2021/04/27 13:57:20;;;;;;;3.80;2.50;;;16.90;58.90;;;;;;4974334;28;20701;-72
2021/04/27 13:59:46;;;;;;;4.53;2.50;;;16.80;57.90;;;;;;4974459;28;20227;-72
2021/04/27 14:02:14;;;;;;;3.10;2.53;;;16.90;58.00;;;;;;4974779;28;20207;-72
2021/04/27 14:04:41;;;;;;;3.07;2.20;;;17.20;56.20;;;;;;4970696;28;20306;-73
2021/04/27 14:07:07;;;;;;;4.97;2.13;;;17.40;57.30;;;;;;4973187;28;20211;-76
2021/04/27 14:09:33;;;;;;;3.43;2.40;;;17.60;57.80;;;;;;4973769;28;20238;-72
2021/04/27 14:12:00;;;;;;;4.20;2.40;;;17.50;57.30;;;;;;4973515;28;20212;-73
2021/04/27 14:14:26;;;;;;;4.10;2.40;;;17.60;58.50;;;;;;4972667;28;20246;-72
2021/04/27 14:16:52;;;;;;;4.00;2.57;;;17.60;56.90;;;;;;4973205;28;20548;-73
2021/04/27 14:19:19;;;;;;;2.83;2.23;;;17.40;57.40;;;;;;4973255;28;20685;-72
2021/04/27 14:21:45;;;;;;;3.67;2.23;;;17.50;57.30;;;;;;4973714;28;20238;-74
2021/04/27 14:24:12;;;;;;;3.20;2.03;;;17.60;57.40;;;;;;4973555;28;20207;-74
2021/04/27 14:26:38;;;;;;;2.90;2.10;;;17.70;58.20;;;;;;4973756;28;20253;-74
2021/04/27 14:29:04;;;;;;;3.43;2.30;;;18.00;57.90;;;;;;4975737;28;20239;-73
2021/04/27 14:31:31;;;;;;;4.67;2.20;;;18.00;56.10;;;;;;4976405;28;20215;-73
2021/04/27 14:33:57;;;;;;;4.17;1.80;;;18.20;55.80;;;;;;4975481;28;20254;-75
2021/04/27 14:36:24;;;;;;;3.90;1.87;;;17.80;54.30;;;;;;4974188;28;20211;-73
2021/04/27 14:38:50;;;;;;;3.07;1.80;;;17.90;54.80;;;;;;4975872;28;20281;-74
2021/04/27 14:41:16;;;;;;;6.47;2.73;;;17.90;54.80;;;;;;4978641;28;20246;-74
2021/04/27 14:43:43;;;;;;;3.87;1.60;;;18.10;55.00;;;;;;4975949;28;20218;-74
2021/04/27 14:46:09;;;;;;;4.83;1.90;;;18.30;55.80;;;;;;4977383;28;20222;-73
2021/04/27 14:48:35;;;;;;;2.63;2.03;;;18.30;55.90;;;;;;4977380;28;20218;-75
2021/04/27 14:51:02;;;;;;;4.13;2.10;;;18.10;55.60;;;;;;4974116;28;20215;-75
2021/04/27 14:53:29;;;;;;;5.10;2.33;;;18.20;55.60;;;;;;4974035;28;20326;-74
2021/04/27 14:55:55;;;;;;;3.00;2.20;;;18.20;55.70;;;;;;4974127;28;20211;-73
2021/04/27 14:58:21;;;;;;;2.77;2.00;;;17.70;55.60;;;;;;4974032;28;20207;-73
2021/04/27 15:00:48;;;;;;;2.63;1.90;;;17.70;55.40;;;;;;4967715;28;20227;-73
2021/04/27 15:03:14;;;;;;;2.57;1.60;;;17.90;56.00;;;;;;4973971;28;20215;-74
2021/04/27 15:05:40;;;;;;;2.10;1.50;;;18.00;54.80;;;;;;4974657;28;20211;-74
2021/04/27 15:08:12;;;;;;;2.53;2.00;;;17.80;55.50;;;;;;4978019;28;20203;-74
2021/04/27 15:10:41;;;;;;;2.73;1.80;;;17.60;55.70;;;;;;4977576;28;20222;-73
2021/04/27 15:13:08;;;;;;;3.97;1.70;;;17.70;55.50;;;;;;4977445;28;20768;-74
2021/04/27 15:15:35;;;;;;;1.90;1.40;;;17.80;55.40;;;;;;4977546;28;20258;-74
2021/04/27 15:18:01;;;;;;;2.97;2.03;;;17.70;54.00;;;;;;4977155;28;20204;-74
2021/04/27 15:20:28;;;;;;;2.20;1.70;;;17.90;55.10;;;;;;4958020;28;20228;-73
2021/04/27 15:22:56;;;;;;;2.40;1.70;;;17.80;55.30;;;;;;4958110;28;20216;-73
2021/04/27 15:25:23;;;;;;;2.70;2.20;;;17.60;55.90;;;;;;4957665;28;20216;-74
2021/04/27 15:27:54;;;;;;;3.10;2.00;;;17.20;56.10;;;;;;4958049;28;20208;-73
2021/04/27 15:30:21;;;;;;;2.50;1.70;;;17.10;56.70;;;;;;4963147;28;20234;-74
2021/04/27 15:32:48;;;;;;;4.30;1.73;;;17.10;56.40;;;;;;4977189;28;20211;-74
2021/04/27 15:35:15;;;;;;;2.97;1.77;;;17.20;57.70;;;;;;4977239;28;20227;-74
2021/04/27 15:37:43;;;;;;;3.27;2.10;;;17.10;56.20;;;;;;4977229;28;20211;-73
2021/04/27 15:40:11;;;;;;;3.10;2.10;;;17.20;56.20;;;;;;4977247;28;20223;-73
2021/04/27 15:42:37;;;;;;;2.67;1.80;;;17.30;57.00;;;;;;4976869;28;20665;-74
2021/04/27 15:45:07;;;;;;;2.63;1.97;;;17.20;56.30;;;;;;4977265;28;20207;-73
2021/04/27 15:47:33;;;;;;;2.70;2.10;;;17.40;56.70;;;;;;4977371;28;20211;-74
2021/04/27 15:49:59;;;;;;;3.10;2.10;;;17.70;55.80;;;;;;4976935;28;20259;-74
2021/04/27 15:52:26;;;;;;;3.80;1.80;;;18.00;56.50;;;;;;4976908;28;20203;-74
2021/04/27 15:54:52;;;;;;;4.73;1.90;;;18.10;56.80;;;;;;4977072;28;20223;-73
2021/04/27 15:57:18;;;;;;;4.27;2.70;;;17.90;56.60;;;;;;4976680;28;20218;-74
2021/04/27 15:59:44;;;;;;;2.90;2.17;;;17.70;56.40;;;;;;4976829;28;20227;-74
2021/04/27 16:02:11;;;;;;;3.30;2.47;;;17.60;56.60;;;;;;4971370;28;20567;-74
2021/04/27 16:04:38;;;;;;;3.20;2.17;;;17.70;56.10;;;;;;4975281;28;20210;-73
2021/04/27 16:07:04;;;;;;;3.10;2.20;;;17.90;56.30;;;;;;4976457;28;20571;-73
2021/04/27 16:09:31;;;;;;;3.83;1.80;;;17.80;57.30;;;;;;4976252;28;20709;-74
2021/04/27 16:11:57;;;;;;;2.43;1.83;;;17.50;56.90;;;;;;4976312;28;20310;-73
2021/04/27 16:14:24;;;;;;;2.90;1.93;;;17.60;58.20;;;;;;4976054;28;20319;-73
2021/04/27 16:16:50;;;;;;;3.60;1.90;;;17.50;56.50;;;;;;4976042;28;20214;-73
2021/04/27 16:19:17;;;;;;;2.63;1.73;;;17.30;56.60;;;;;;4976408;28;20227;-73
2021/04/27 16:21:43;;;;;;;2.60;1.53;;;17.30;56.90;;;;;;4976466;28;20207;-73
2021/04/27 16:24:10;;;;;;;3.23;1.87;;;17.30;55.40;;;;;;4976367;28;20291;-73
2021/04/27 16:26:36;;;;;;;4.50;2.03;;;17.30;56.70;;;;;;4976580;28;20215;-73
2021/04/27 16:29:02;;;;;;;2.57;2.00;;;17.40;56.40;;;;;;4975726;28;20235;-72
2021/04/27 16:31:29;;;;;;;4.63;2.37;;;17.50;56.40;;;;;;4976146;28;20211;-72
2021/04/27 16:33:56;;;;;;;4.43;2.20;;;17.50;57.20;;;;;;4975746;28;20246;-73
2021/04/27 16:36:23;;;;;;;2.90;2.30;;;17.40;58.00;;;;;;4977081;28;20250;-73
2021/04/27 16:38:49;;;;;;;3.43;2.20;;;17.30;58.10;;;;;;4976001;28;20282;-74
2021/04/27 16:41:16;;;;;;;4.13;2.40;;;17.10;58.10;;;;;;4976710;28;20266;-74
2021/04/27 16:43:42;;;;;;;5.03;2.60;;;17.10;58.70;;;;;;4976070;28;20212;-72
2021/04/27 16:46:10;;;;;;;3.27;2.30;;;17.10;58.00;;;;;;4976304;28;20209;-74
2021/04/27 16:48:37;;;;;;;3.97;2.20;;;17.10;57.10;;;;;;4975778;28;20207;-74
2021/04/27 16:51:03;;;;;;;3.30;2.30;;;17.20;57.20;;;;;;4975651;28;20234;-73
2021/04/27 16:53:31;;;;;;;6.70;2.60;;;17.30;57.10;;;;;;4974962;28;20710;-73
2021/04/27 16:55:57;;;;;;;5.10;2.50;;;17.40;57.20;;;;;;4975735;28;20207;-75
2021/04/27 16:58:24;;;;;;;2.83;2.00;;;17.30;56.80;;;;;;4975561;28;20210;-73
2021/04/27 17:00:50;;;;;;;2.63;1.87;;;17.10;57.70;;;;;;4975134;28;20226;-73
2021/04/27 17:03:18;;;;;;;4.50;2.07;;;17.00;58.10;;;;;;4975306;28;20218;-73
2021/04/27 17:05:44;;;;;;;3.30;2.23;;;16.90;57.70;;;;;;4975441;28;20307;-72
2021/04/27 17:08:11;;;;;;;3.37;2.60;;;16.90;58.30;;;;;;4975272;28;20274;-74
2021/04/27 17:10:38;;;;;;;3.87;2.07;;;16.80;58.10;;;;;;4975092;28;20231;-75
2021/04/27 17:13:04;;;;;;;3.83;2.20;;;16.90;58.50;;;;;;4974866;28;20670;-74
2021/04/27 17:15:31;;;;;;;3.03;1.80;;;16.80;58.40;;;;;;4975650;28;20230;-74
2021/04/27 17:17:58;;;;;;;4.80;2.50;;;16.80;58.40;;;;;;4975095;28;20253;-75
2021/04/27 17:20:25;;;;;;;3.50;2.17;;;16.60;58.50;;;;;;4974940;28;20281;-73
2021/04/27 17:22:51;;;;;;;2.77;2.30;;;16.60;58.10;;;;;;4974959;28;20271;-74
2021/04/27 17:25:17;;;;;;;5.37;2.10;;;16.60;58.10;;;;;;4975328;28;20215;-75
2021/04/27 17:27:45;;;;;;;3.77;2.10;;;16.50;57.60;;;;;;4973792;28;20207;-73
2021/04/27 17:30:13;;;;;;;4.00;2.20;;;16.40;57.70;;;;;;4974660;28;20286;-72
2021/04/27 17:32:40;;;;;;;2.53;1.83;;;16.40;58.10;;;;;;4974749;28;20211;-72
2021/04/27 17:35:07;;;;;;;2.63;1.83;;;16.50;58.10;;;;;;4975065;28;20239;-73
2021/04/27 17:37:34;;;;;;;4.93;2.33;;;16.60;57.70;;;;;;4974853;28;20211;-73
2021/04/27 17:40:00;;;;;;;3.30;2.10;;;16.60;57.20;;;;;;4974746;28;20232;-73
2021/04/27 17:42:26;;;;;;;4.17;2.43;;;16.70;57.30;;;;;;4974533;28;20207;-73
2021/04/27 17:44:53;;;;;;;3.33;2.40;;;16.80;57.30;;;;;;4974454;28;20210;-73
2021/04/27 17:47:20;;;;;;;4.43;2.27;;;16.80;57.90;;;;;;4974580;28;20559;-73
2021/04/27 17:49:47;;;;;;;2.80;1.87;;;16.70;57.40;;;;;;4974403;28;20231;-73
2021/04/27 17:52:13;;;;;;;4.20;2.40;;;16.80;57.20;;;;;;4974365;28;20235;-73
2021/04/27 17:54:40;;;;;;;2.90;2.30;;;16.80;57.80;;;;;;4974504;28;20235;-73
2021/04/27 17:57:06;;;;;;;3.43;2.03;;;17.00;57.40;;;;;;4974679;28;20234;-72
2021/04/27 17:59:33;;;;;;;3.77;1.90;;;16.80;57.50;;;;;;4974448;28;20289;-72
2021/04/27 18:02:00;;;;;;;4.33;2.17;;;16.70;57.50;;;;;;4974130;28;20744;-72
2021/04/27 18:04:26;;;;;;;3.57;2.17;;;16.70;57.30;;;;;;4974510;28;20239;-74
2021/04/27 18:06:53;;;;;;;7.03;2.50;;;16.90;59.30;;;;;;4974579;28;20207;-75
2021/04/27 18:09:20;;;;;;;3.47;2.20;;;17.00;60.50;;;;;;4974213;28;20349;-75
2021/04/27 18:11:47;;;;;;;2.90;2.03;;;17.00;61.10;;;;;;4974689;28;20217;-74
2021/04/27 18:14:14;;;;;;;4.50;2.37;;;16.80;61.30;;;;;;4974047;28;20331;-73
2021/04/27 18:16:41;;;;;;;4.37;2.30;;;16.60;60.40;;;;;;4965323;28;20235;-75
2021/04/27 18:19:08;;;;;;;3.03;2.13;;;16.50;61.00;;;;;;4953463;28;20228;-75
2021/04/27 18:21:34;;;;;;;4.23;2.40;;;16.20;60.80;;;;;;4954944;28;20212;-75
2021/04/27 18:24:01;;;;;;;3.77;2.60;;;15.90;61.40;;;;;;4972408;28;20598;-76
2021/04/27 18:26:27;;;;;;;4.07;2.67;;;15.60;61.50;;;;;;4972593;28;20574;-76
2021/04/27 18:28:55;;;;;;;3.40;2.33;;;15.40;61.50;;;;;;4972808;28;20254;-76
2021/04/27 18:31:22;;;;;;;3.17;2.27;;;15.30;62.20;;;;;;4973689;28;20611;-73
2021/04/27 18:33:48;;;;;;;4.43;2.47;;;15.30;62.50;;;;;;4972733;28;20245;-73
2021/04/27 18:36:15;;;;;;;3.43;2.17;;;15.20;62.50;;;;;;4972085;28;20207;-75
2021/04/27 18:38:42;;;;;;;5.70;2.60;;;15.10;62.40;;;;;;4972443;28;20646;-73
2021/04/27 18:41:08;;;;;;;5.30;2.40;;;15.00;62.80;;;;;;4978072;28;20214;-74
2021/04/27 18:43:35;;;;;;;5.07;2.23;;;14.90;62.70;;;;;;4978824;28;20273;-75
2021/04/27 18:46:01;;;;;;;4.40;2.67;;;14.90;63.00;;;;;;4978707;28;20210;-75
2021/04/27 18:48:27;;;;;;;4.07;2.20;;;14.90;63.40;;;;;;4979577;28;20211;-74
2021/04/27 18:50:55;;;;;;;4.40;2.70;;;14.90;63.30;;;;;;4979188;28;20211;-74
2021/04/27 18:53:23;;;;;;;3.83;2.77;;;14.90;63.40;;;;;;4979001;28;20230;-74
2021/04/27 18:55:50;;;;;;;5.60;2.93;;;14.70;64.00;;;;;;4979079;28;20211;-75
2021/04/27 18:58:18;;;;;;;4.80;2.63;;;14.70;64.10;;;;;;4979211;28;20207;-75
2021/04/27 19:00:45;;;;;;;4.43;2.50;;;14.70;64.50;;;;;;4979302;28;20262;-75
2021/04/27 19:03:11;;;;;;;6.00;2.40;;;14.60;64.40;;;;;;4978558;28;20690;-75
2021/04/27 19:05:37;;;;;;;4.57;3.03;;;14.60;64.80;;;;;;4978791;28;20211;-75
2021/04/27 19:08:05;;;;;;;5.33;3.20;;;14.50;64.60;;;;;;4978515;28;20211;-75